Impacts METAR Board INFO
IDs:

KPHX - Phoenix/Sky Harbor, AZ, US

Updated at: 2226 UTC 13 Dec 2017
Potential Impact None Slight Moderate High
Time13/10Z 13/11Z 13/12Z 13/13Z 13/14Z 13/15Z 13/16Z 13/17Z 13/18Z 13/19Z 13/20Z 13/21Z 13/22Z
VIS10 10 10 10 10 10 10 10 10 10 10 10 10
CIG-- -- -- 250 -- -- -- -- -- -- -- -- --
CoverSCTFEWSCTBKNFEWFEWFEWFEWFEWFEWFEWFEWFEW
FltCatVFRVFRVFRVFRVFRVFRVFRVFRVFRVFRVFRVFRVFR
WX--------------------------
WDir901902002200001008060600260
WSpd9 3 3 5 0 0 0 8 12 9 3 0 3
WGst-- -- -- -- -- -- -- -- -- -- -- -- --
Raw hourly METARs
KPHX 130951Z 09009KT 10SM SCT250 16/M12 A3003 RMK AO2 SLP158 T01561117
KPHX 131051Z 19003KT 10SM FEW250 11/M08 A3003 RMK AO2 SLP160 T01111083
KPHX 131151Z 20003KT 10SM SCT250 11/M08 A3002 RMK AO2 SLP157 T01061083 10178 20089 58004
KPHX 131251Z 22005KT 10SM BKN250 09/M06 A3003 RMK AO2 SLP162 T00891056
KPHX 131351Z 00000KT 10SM FEW250 10/M07 A3004 RMK AO2 SLP166 T01001072
KPHX 131451Z 00000KT 10SM FEW250 11/M08 A3005 RMK AO2 SLP170 T01061078 53011
KPHX 131551Z 00000KT 10SM FEW250 13/M06 A3005 RMK AO2 SLP169 T01281056
KPHX 131651Z 10008KT 10SM FEW250 18/M11 A3006 RMK AO2 SLP168 T01831111
KPHX 131751Z 08012KT 10SM FEW250 20/M14 A3005 RMK AO2 SLP164 T02001139 10200 20078 58002
KPHX 131851Z 06009KT 10SM FEW250 22/M13 A3002 RMK AO2 SLP153 T02221133
KPHX 131951Z 06003KT 10SM FEW250 23/M13 A2997 RMK AO2 SLP139 T02331133
KPHX 132051Z 00000KT 10SM FEW250 24/M13 A2995 RMK AO2 SLP130 T02391128 56033
KPHX 132151Z 26003KT 10SM FEW250 24/M13 A2993 RMK AO2 SLP122 T02441128